createdAt,value
2018-09-03T00:01:03.071Z,97429.39
2018-09-03T00:03:31.627Z,97426.19
2018-09-03T00:06:00.215Z,97427.35
2018-09-03T00:08:28.811Z,97421.23
2018-09-03T00:10:57.829Z,97424.34
2018-09-03T00:13:26.451Z,97422.16
2018-09-03T00:15:55.243Z,97420.91
2018-09-03T00:18:23.864Z,97415.72
2018-09-03T00:20:52.440Z,97417.45
2018-09-03T00:23:21.461Z,97416.36
2018-09-03T00:25:50.043Z,97411.13
2018-09-03T00:28:18.647Z,97407.09
2018-09-03T00:30:47.444Z,97410.86
2018-09-03T00:33:21.044Z,97420.84
2018-09-03T00:35:54.856Z,97424.23
2018-09-03T00:38:28.519Z,97428.14
2018-09-03T00:41:02.263Z,97439.56
2018-09-03T00:43:36.027Z,97451.64
2018-09-03T00:46:09.759Z,97453.38
2018-09-03T00:48:38.387Z,97467.70
2018-09-03T00:51:06.979Z,97459.55
2018-09-03T00:53:35.636Z,97451.50
2018-09-03T00:56:04.227Z,97452.96
2018-09-03T00:58:32.790Z,97456.05
2018-09-03T01:01:01.653Z,97461.78
2018-09-03T01:03:30.217Z,97464.42
2018-09-03T01:05:58.787Z,97471.54
2018-09-03T01:08:27.476Z,97482.61
2018-09-03T01:10:56.028Z,97483.63
2018-09-03T01:13:24.616Z,97487.39
2018-09-03T01:15:53.566Z,97483.63
2018-09-03T01:18:22.161Z,97482.61
2018-09-03T01:20:50.737Z,97482.09
2018-09-03T01:23:19.428Z,97475.49
2018-09-03T01:25:48.069Z,97467.62
2018-09-03T01:28:16.644Z,97465.78
2018-09-03T01:30:45.308Z,97462.49
2018-09-03T01:33:13.882Z,97458.20
2018-09-03T01:35:42.488Z,97452.77
2018-09-03T01:38:11.207Z,97444.71
2018-09-03T01:40:39.774Z,97434.39
2018-09-03T01:43:08.368Z,97442.34
2018-09-03T01:45:37.283Z,97431.68
2018-09-03T01:48:05.923Z,97424.53
2018-09-03T01:50:34.473Z,97429.39
2018-09-03T01:53:03.048Z,97439.06
2018-09-03T01:55:31.603Z,97430.81
2018-09-03T01:58:00.167Z,97437.31
2018-09-03T02:00:28.777Z,97430.54
2018-09-03T02:02:57.356Z,97437.02
2018-09-03T02:05:25.921Z,97439.17
2018-09-03T02:07:54.659Z,97440.27
2018-09-03T02:10:23.208Z,97432.84
2018-09-03T02:12:51.764Z,97435.10
2018-09-03T02:15:20.661Z,97438.19
2018-09-03T02:17:49.220Z,97425.30
2018-09-03T02:20:17.780Z,97418.52
2018-09-03T02:22:46.664Z,97416.33
2018-09-03T02:25:15.227Z,97417.91
2018-09-03T02:27:43.807Z,97413.19
2018-09-03T02:30:12.397Z,97403.14
2018-09-03T02:32:41.584Z,97398.91
2018-09-03T02:35:10.158Z,97405.42
2018-09-03T02:37:38.828Z,97395.52
2018-09-03T02:40:07.681Z,97403.88
2018-09-03T02:42:36.310Z,97391.59
2018-09-03T02:45:05.340Z,97388.64
2018-09-03T02:47:33.926Z,97385.16
2018-09-03T02:50:02.500Z,97391.34
2018-09-03T02:52:31.187Z,97395.17
2018-09-03T02:54:59.735Z,97397.61
2018-09-03T02:57:28.336Z,97398.98
2018-09-03T02:59:57.136Z,97398.06
2018-09-03T03:02:26.072Z,97393.45
2018-09-03T03:04:54.655Z,97396.54
2018-09-03T03:07:23.555Z,97392.55
2018-09-03T03:09:52.131Z,97397.67
2018-09-03T03:12:22.607Z,97386.73
2018-09-03T03:14:52.351Z,97387.50
2018-09-03T03:17:21.461Z,97391.22
2018-09-03T03:19:50.220Z,97389.59
2018-09-03T03:22:18.951Z,97380.63
2018-09-03T03:24:47.639Z,97382.42
2018-09-03T03:27:16.730Z,97382.11
2018-09-03T03:29:46.000Z,97384.59
2018-09-03T03:32:14.759Z,97383.14
2018-09-03T03:34:43.335Z,97388.27
2018-09-03T03:37:11.907Z,97380.58
2018-09-03T03:39:40.521Z,97379.55
2018-09-03T03:42:09.080Z,97372.69
2018-09-03T03:44:37.679Z,97374.17
2018-09-03T03:47:06.316Z,97370.78
2018-09-03T03:49:34.899Z,97365.39
2018-09-03T03:52:03.579Z,97356.87
2018-09-03T03:54:32.293Z,97357.42
2018-09-03T03:57:00.871Z,97348.23
2018-09-03T03:59:29.450Z,97348.23
2018-09-03T04:01:58.194Z,97343.02
2018-09-03T04:04:26.771Z,97349.28
2018-09-03T04:06:55.350Z,97349.88
2018-09-03T04:09:24.076Z,97352.58
2018-09-03T04:11:52.663Z,97352.44
2018-09-03T04:14:21.208Z,97350.08
2018-09-03T04:16:49.903Z,97353.92
2018-09-03T04:19:18.483Z,97353.92
2018-09-03T04:21:47.056Z,97352.78
2018-09-03T04:24:15.995Z,97352.95
2018-09-03T04:26:44.560Z,97348.73
2018-09-03T04:29:13.129Z,97352.95
2018-09-03T04:31:42.028Z,97348.40
2018-09-03T04:34:10.675Z,97358.16
2018-09-03T04:36:39.227Z,97360.38
2018-09-03T04:39:09.824Z,97355.40
2018-09-03T04:41:38.711Z,97357.84
2018-09-03T04:44:07.339Z,97360.90
2018-09-03T04:46:35.933Z,97369.51
2018-09-03T04:49:04.515Z,97366.28
2018-09-03T04:51:33.135Z,97359.73
2018-09-03T04:54:02.077Z,97361.09
2018-09-03T04:56:30.633Z,97354.86
2018-09-03T04:58:59.187Z,97354.84
2018-09-03T05:01:27.852Z,97355.78
2018-09-03T05:03:56.415Z,97356.37
2018-09-03T05:06:24.967Z,97362.13
2018-09-03T05:08:53.593Z,97367.00
2018-09-03T05:11:22.147Z,97364.64
2018-09-03T05:13:50.788Z,97357.12
2018-09-03T05:16:19.492Z,97359.31
2018-09-03T05:18:48.051Z,97350.25
2018-09-03T05:21:16.642Z,97355.23
2018-09-03T05:23:45.269Z,97349.08
2018-09-03T05:26:13.895Z,97352.35
2018-09-03T05:28:42.431Z,97358.19
2018-09-03T05:31:11.183Z,97364.89
2018-09-03T05:33:39.771Z,97366.77
2018-09-03T05:36:08.492Z,97365.28
2018-09-03T05:38:37.144Z,97369.24
2018-09-03T05:41:05.797Z,97376.02
2018-09-03T05:43:34.597Z,97368.05
2018-09-03T05:46:03.512Z,97372.37
2018-09-03T05:48:32.076Z,97378.45
2018-09-03T05:51:00.679Z,97379.98
2018-09-03T05:53:29.375Z,97378.82
2018-09-03T05:55:58.011Z,97383.20
2018-09-03T05:58:26.603Z,97377.23
2018-09-03T06:00:55.261Z,97382.75
2018-09-03T06:03:23.973Z,97382.81
2018-09-03T06:05:52.555Z,97383.12
2018-09-03T06:08:21.206Z,97388.70
2018-09-03T06:10:49.764Z,97383.38
2018-09-03T06:13:18.337Z,97376.77
2018-09-03T06:15:47.400Z,97378.10
2018-09-03T06:18:15.956Z,97378.73
2018-09-03T06:20:45.056Z,97382.48
2018-09-03T06:23:13.748Z,97378.64
2018-09-03T06:25:42.321Z,97377.81
2018-09-03T06:28:10.875Z,97381.80
2018-09-03T06:30:39.465Z,97384.53
2018-09-03T06:33:08.035Z,97384.33
2018-09-03T06:35:36.587Z,97381.10
2018-09-03T06:38:05.287Z,97378.99
2018-09-03T06:40:33.869Z,97377.00
2018-09-03T06:43:02.420Z,97378.99
2018-09-03T06:45:31.328Z,97383.21
2018-09-03T06:47:59.891Z,97386.40
2018-09-03T06:50:28.440Z,97384.75
2018-09-03T06:52:57.393Z,97375.19
2018-09-03T06:55:25.967Z,97373.57
2018-09-03T06:57:54.536Z,97374.37
2018-09-03T07:00:24.088Z,97375.45
2018-09-03T07:02:55.590Z,97378.91
2018-09-03T07:05:25.604Z,97376.80
2018-09-03T07:07:54.155Z,97380.78
2018-09-03T07:10:25.258Z,97370.02
2018-09-03T07:12:54.026Z,97373.55
2018-09-03T07:15:22.887Z,97370.89
2018-09-03T07:17:54.483Z,97369.95
2018-09-03T07:20:25.558Z,97373.25
2018-09-03T07:22:54.203Z,97369.19
2018-09-03T07:25:22.796Z,97369.49
2018-09-03T07:27:51.335Z,97372.47
2018-09-03T07:30:19.908Z,97371.02
2018-09-03T07:32:48.464Z,97371.64
2018-09-03T07:35:17.074Z,97368.50
2018-09-03T07:37:45.741Z,97367.38
2018-09-03T07:40:14.319Z,97363.32
2018-09-03T07:42:42.887Z,97365.59
2018-09-03T07:45:11.476Z,97368.04
2018-09-03T07:47:40.091Z,97362.86
2018-09-03T07:50:08.647Z,97355.98
2018-09-03T07:52:37.351Z,97352.09
2018-09-03T07:55:05.912Z,97351.68
2018-09-03T07:57:34.463Z,97349.27
2018-09-03T08:00:03.134Z,97357.38
2018-09-03T08:02:31.695Z,97362.70
2018-09-03T08:05:00.251Z,97368.56
2018-09-03T08:07:28.934Z,97369.75
2018-09-03T08:09:57.471Z,97369.05
2018-09-03T08:12:26.028Z,97372.36
2018-09-03T08:14:54.696Z,97374.38
2018-09-03T08:17:23.332Z,97379.20
2018-09-03T08:19:51.905Z,97382.94
2018-09-03T08:22:20.583Z,97374.02
2018-09-03T08:24:49.140Z,97377.24
2018-09-03T08:27:17.708Z,97375.42
2018-09-03T08:29:46.771Z,97377.90
2018-09-03T08:32:15.332Z,97374.38
2018-09-03T08:34:43.891Z,97376.48
2018-09-03T08:37:12.875Z,97381.45
2018-09-03T08:39:41.427Z,97383.80
2018-09-03T08:42:10.170Z,97381.36
2018-09-03T08:44:38.787Z,97377.81
2018-09-03T08:47:07.404Z,97377.75
2018-09-03T08:49:35.944Z,97380.37
2018-09-03T08:52:04.544Z,97379.59
2018-09-03T08:54:33.121Z,97380.19
2018-09-03T08:57:01.695Z,97382.52
2018-09-03T08:59:30.539Z,97382.02
2018-09-03T09:01:59.100Z,97384.22
2018-09-03T09:04:27.652Z,97377.92
2018-09-03T09:06:56.284Z,97379.25
2018-09-03T09:09:24.832Z,97377.67
2018-09-03T09:11:53.384Z,97369.03
2018-09-03T09:14:21.951Z,97372.34
2018-09-03T09:16:50.495Z,97364.48
2018-09-03T09:19:19.080Z,97360.05
2018-09-03T09:21:47.760Z,97361.50
2018-09-03T09:24:16.301Z,97354.75
2018-09-03T09:26:44.844Z,97360.36
2018-09-03T09:29:13.531Z,97364.97
2018-09-03T09:31:42.076Z,97360.09
2018-09-03T09:34:10.636Z,97360.00
2018-09-03T09:36:39.444Z,97365.45
2018-09-03T09:39:09.201Z,97370.91
2018-09-03T09:41:37.762Z,97366.81
2018-09-03T09:44:06.963Z,97361.27
2018-09-03T09:46:35.521Z,97363.94
2018-09-03T09:49:04.071Z,97357.80
2018-09-03T09:51:32.729Z,97357.01
2018-09-03T09:54:01.295Z,97353.93
2018-09-03T09:56:29.844Z,97350.78
2018-09-03T09:58:58.508Z,97354.15
2018-09-03T10:01:32.271Z,97354.70
2018-09-03T10:04:00.918Z,97355.03
2018-09-03T10:06:29.467Z,97349.75
2018-09-03T10:08:58.393Z,97353.08
2018-09-03T10:11:27.819Z,97346.75
2018-09-03T10:13:56.375Z,97342.24
2018-09-03T10:16:24.951Z,97346.19
2018-09-03T10:18:53.627Z,97347.12
2018-09-03T10:21:22.172Z,97340.27
2018-09-03T10:23:50.724Z,97337.25
2018-09-03T10:26:19.766Z,97342.28
2018-09-03T10:28:48.336Z,97348.40
2018-09-03T10:31:16.915Z,97347.48
2018-09-03T10:33:45.559Z,97341.89
2018-09-03T10:36:14.119Z,97339.22
2018-09-03T10:38:42.759Z,97346.28
2018-09-03T10:41:11.716Z,97338.96
2018-09-03T10:43:40.375Z,97344.97
2018-09-03T10:46:09.020Z,97343.47
2018-09-03T10:48:38.076Z,97346.61
2018-09-03T10:51:06.620Z,97338.19
2018-09-03T10:53:35.184Z,97345.81
2018-09-03T10:56:03.799Z,97350.00
2018-09-03T10:58:32.359Z,97353.73
2018-09-03T11:01:00.951Z,97356.37
2018-09-03T11:03:29.628Z,97351.34
2018-09-03T11:05:58.179Z,97351.95
2018-09-03T11:08:26.768Z,97350.29
2018-09-03T11:10:55.647Z,97348.09
2018-09-03T11:13:24.199Z,97352.36
2018-09-03T11:15:52.789Z,97344.86
2018-09-03T11:18:21.707Z,97339.72
2018-09-03T11:20:50.274Z,97344.78
2018-09-03T11:23:18.824Z,97341.97
2018-09-03T11:25:47.443Z,97343.63
2018-09-03T11:28:16.063Z,97341.37
2018-09-03T11:30:44.687Z,97349.78
2018-09-03T11:33:13.279Z,97344.61
2018-09-03T11:35:41.843Z,97344.30
2018-09-03T11:38:10.399Z,97350.75
2018-09-03T11:40:39.067Z,97350.77
2018-09-03T11:43:07.771Z,97357.11
2018-09-03T11:45:36.323Z,97350.34
2018-09-03T11:48:04.916Z,97348.10
2018-09-03T11:50:33.487Z,97359.72
2018-09-03T11:53:02.044Z,97351.86
2018-09-03T11:55:30.643Z,97350.08
2018-09-03T11:57:59.271Z,97348.13
2018-09-03T12:00:29.735Z,97336.31
2018-09-03T12:02:58.915Z,97334.75
2018-09-03T12:05:28.198Z,97335.91
2018-09-03T12:07:56.923Z,97331.55
2018-09-03T12:10:25.664Z,97330.48
2018-09-03T12:12:54.208Z,97335.44
2018-09-03T12:15:33.265Z,97335.77
2018-09-03T12:18:01.827Z,97332.02
2018-09-03T12:20:30.753Z,97328.38
2018-09-03T12:22:59.435Z,97326.88
2018-09-03T12:25:28.096Z,97329.42
2018-09-03T12:27:56.984Z,97328.38
2018-09-03T12:30:25.580Z,97324.24
2018-09-03T12:32:54.151Z,97327.42
2018-09-03T12:35:22.724Z,97322.99
2018-09-03T12:37:51.388Z,97317.87
2018-09-03T12:42:47.515Z,97322.45
2018-09-03T12:45:16.156Z,97313.64
2018-09-03T12:47:44.730Z,97315.25
2018-09-03T12:50:13.363Z,97314.75
2018-09-03T12:52:42.143Z,97314.92
2018-09-03T12:55:10.716Z,97314.34
2018-09-03T12:57:39.261Z,97319.02
2018-09-03T13:00:07.888Z,97316.34
2018-09-03T13:02:39.415Z,97314.81
2018-09-03T13:05:05.139Z,97319.27
2018-09-03T13:07:33.811Z,97321.22
2018-09-03T13:10:02.371Z,97320.21
2018-09-03T13:12:31.090Z,97315.59
2018-09-03T13:14:59.700Z,97317.30
2018-09-03T13:17:29.215Z,97321.45
2018-09-03T13:19:57.887Z,97307.70
2018-09-03T13:22:26.788Z,97304.77
2018-09-03T13:24:55.377Z,97304.72
2018-09-03T13:27:23.936Z,97302.10
2018-09-03T13:29:52.655Z,97296.36
2018-09-03T13:32:21.227Z,97295.11
2018-09-03T13:34:49.804Z,97290.32
2018-09-03T13:37:18.528Z,97297.03
2018-09-03T13:39:47.093Z,97289.34
2018-09-03T13:42:15.987Z,97279.27
2018-09-03T13:44:44.667Z,97285.92
2018-09-03T13:47:13.227Z,97282.14
2018-09-03T13:49:41.791Z,97284.44
2018-09-03T13:52:10.607Z,97278.95
2018-09-03T13:54:39.179Z,97279.63
2018-09-03T13:57:07.752Z,97278.33
2018-09-03T13:59:36.439Z,97276.80
2018-09-03T14:02:05.372Z,97278.80
2018-09-03T14:04:33.992Z,97273.81
2018-09-03T14:07:02.571Z,97268.73
2018-09-03T14:09:32.121Z,97273.81
2018-09-03T14:12:00.716Z,97267.45
2018-09-03T14:14:29.471Z,97269.97
2018-09-03T14:16:58.779Z,97269.23
2018-09-03T14:19:27.373Z,97274.77
2018-09-03T14:21:55.972Z,97265.47
2018-09-03T14:24:24.588Z,97261.04
2018-09-03T14:26:53.295Z,97263.36
2018-09-03T14:29:23.014Z,97261.95
2018-09-03T14:31:51.627Z,97259.75
2018-09-03T14:34:20.184Z,97253.03
2018-09-03T14:36:49.021Z,97244.63
2018-09-03T14:39:18.067Z,97247.56
2018-09-03T14:41:47.675Z,97244.77
2018-09-03T14:44:18.395Z,97250.03
2018-09-03T14:46:48.653Z,97254.28
2018-09-03T14:49:18.841Z,97251.75
2018-09-03T14:51:48.935Z,97247.88
2018-09-03T14:54:17.931Z,97246.60
2018-09-03T14:56:47.830Z,97246.13
2018-09-03T14:59:16.391Z,97246.33
2018-09-03T15:01:45.287Z,97241.78
2018-09-03T15:04:13.936Z,97248.14
2018-09-03T15:06:42.535Z,97248.41
2018-09-03T15:09:12.400Z,97247.56
2018-09-03T15:11:41.267Z,97252.22
2018-09-03T15:14:09.852Z,97250.41
2018-09-03T15:16:38.440Z,97250.10
2018-09-03T15:19:07.350Z,97243.13
2018-09-03T15:21:36.520Z,97246.95
2018-09-03T15:24:05.894Z,97244.78
2018-09-03T15:26:35.041Z,97250.03
2018-09-03T15:29:03.591Z,97249.47
2018-09-03T15:31:32.179Z,97252.20
2018-09-03T15:34:00.907Z,97248.34
2018-09-03T15:36:29.564Z,97246.52
2018-09-03T15:38:58.257Z,97248.07
2018-09-03T15:41:26.822Z,97252.15
2018-09-03T15:43:55.408Z,97247.56
2018-09-03T15:46:24.008Z,97250.94
2018-09-03T15:48:52.608Z,97251.86
2018-09-03T15:51:21.164Z,97258.27
2018-09-03T15:53:50.080Z,97254.59
2018-09-03T15:56:18.681Z,97251.28
2018-09-03T15:58:47.232Z,97244.73
2018-09-03T16:01:15.912Z,97243.86
2018-09-03T16:03:44.489Z,97244.27
2018-09-03T16:06:13.051Z,97240.04
2018-09-03T16:08:42.000Z,97237.25
2018-09-03T16:11:10.559Z,97238.19
2018-09-03T16:13:39.128Z,97240.00
2018-09-03T16:16:07.787Z,97237.31
2018-09-03T16:18:36.622Z,97239.45
2018-09-03T16:21:05.656Z,97238.14
2018-09-03T16:23:34.953Z,97234.30
2018-09-03T16:26:03.841Z,97230.86
2018-09-03T16:28:32.451Z,97231.42
2018-09-03T16:31:01.544Z,97234.97
2018-09-03T16:33:30.486Z,97238.50
2018-09-03T16:35:59.393Z,97236.48
2018-09-03T16:38:28.015Z,97234.46
2018-09-03T16:40:56.878Z,97238.14
2018-09-03T16:43:26.044Z,97228.91
2018-09-03T16:45:54.847Z,97239.48
2018-09-03T16:48:23.765Z,97241.55
2018-09-03T16:50:52.876Z,97245.34
2018-09-03T16:53:22.061Z,97254.13
2018-09-03T16:55:51.140Z,97247.63
2018-09-03T16:58:20.255Z,97246.70
2018-09-03T17:00:48.923Z,97243.18
2018-09-03T17:03:17.449Z,97242.03
2018-09-03T17:05:46.476Z,97246.03
2018-09-03T17:08:15.488Z,97247.00
2018-09-03T17:10:44.303Z,97249.59
2018-09-03T17:13:13.194Z,97251.95
2018-09-03T17:15:42.167Z,97252.98
2018-09-03T17:18:10.744Z,97256.03
2018-09-03T17:20:39.686Z,97256.17
2018-09-03T17:23:08.299Z,97259.22
2018-09-03T17:25:37.195Z,97264.02
2018-09-03T17:28:06.479Z,97261.59
2018-09-03T17:30:35.222Z,97264.48
2018-09-03T17:33:03.805Z,97260.08
2018-09-03T17:35:32.540Z,97258.27
2018-09-03T17:38:01.456Z,97262.59
2018-09-03T17:40:31.559Z,97264.09
2018-09-03T17:43:00.372Z,97261.63
2018-09-03T17:45:28.987Z,97259.66
2018-09-03T17:47:57.735Z,97266.79
2018-09-03T17:50:26.312Z,97264.56
2018-09-03T17:52:55.335Z,97256.87
2018-09-03T17:55:23.919Z,97258.98
2018-09-03T17:57:52.484Z,97253.47
2018-09-03T18:00:21.160Z,97255.86
2018-09-03T18:02:49.719Z,97257.76
2018-09-03T18:05:18.292Z,97260.45
2018-09-03T18:07:46.887Z,97262.34
2018-09-03T18:10:15.453Z,97265.63
2018-09-03T18:12:44.021Z,97269.61
2018-09-03T18:15:12.696Z,97270.36
2018-09-03T18:17:41.248Z,97263.47
2018-09-03T18:20:09.924Z,97265.12
2018-09-03T18:22:38.859Z,97267.48
2018-09-03T18:25:07.487Z,97270.65
2018-09-03T18:27:36.164Z,97272.41
2018-09-03T18:30:04.876Z,97268.89
2018-09-03T18:32:33.508Z,97272.98
2018-09-03T18:35:02.080Z,97276.02
2018-09-03T18:37:31.083Z,97276.27
2018-09-03T18:39:59.665Z,97283.20
2018-09-03T18:42:28.232Z,97285.66
2018-09-03T18:44:56.919Z,97290.13
2018-09-03T18:47:25.509Z,97286.61
2018-09-03T18:49:54.096Z,97288.37
2018-09-03T18:52:22.851Z,97289.47
2018-09-03T18:54:51.407Z,97294.87
2018-09-03T18:57:19.976Z,97295.13
2018-09-03T18:59:48.728Z,97299.80
2018-09-03T19:02:17.271Z,97300.17
2018-09-03T19:04:45.839Z,97300.52
2018-09-03T19:07:14.507Z,97309.75
2018-09-03T19:09:43.133Z,97307.52
2018-09-03T19:12:11.703Z,97306.33
2018-09-03T19:14:40.291Z,97308.31
2018-09-03T19:17:08.874Z,97306.47
2018-09-03T19:19:37.504Z,97312.89
2018-09-03T19:22:06.295Z,97308.22
2018-09-03T19:24:34.864Z,97308.67
2018-09-03T19:27:03.492Z,97314.28
2018-09-03T19:29:32.159Z,97312.87
2018-09-03T19:32:00.747Z,97308.55
2018-09-03T19:34:29.302Z,97310.05
2018-09-03T19:36:57.996Z,97310.28
2018-09-03T19:39:26.551Z,97314.97
2018-09-03T19:41:55.115Z,97308.53
2018-09-03T19:44:23.819Z,97312.38
2018-09-03T19:46:52.383Z,97307.80
2018-09-03T19:49:21.107Z,97308.61
2018-09-03T19:51:49.959Z,97310.48
2018-09-03T19:54:18.645Z,97308.02
2018-09-03T19:56:47.204Z,97308.15
2018-09-03T19:59:15.807Z,97314.11
2018-09-03T20:01:44.355Z,97313.84
2018-09-03T20:04:13.005Z,97307.29
2018-09-03T20:06:41.680Z,97306.23
2018-09-03T20:09:11.099Z,97309.03
2018-09-03T20:11:40.534Z,97312.52
2018-09-03T20:14:09.976Z,97306.92
2018-09-03T20:16:38.558Z,97308.91
2018-09-03T20:19:07.115Z,97304.35
2018-09-03T20:21:35.796Z,97306.88
2018-09-03T20:24:04.435Z,97309.91
2018-09-03T20:26:33.064Z,97309.89
2018-09-03T20:29:01.744Z,97305.07
2018-09-03T20:31:30.308Z,97309.37
2018-09-03T20:33:58.967Z,97300.50
2018-09-03T20:36:27.584Z,97307.29
2018-09-03T20:38:56.331Z,97304.80
2018-09-03T20:41:24.915Z,97302.91
2018-09-03T20:43:53.619Z,97302.80
2018-09-03T20:46:22.218Z,97304.30
2018-09-03T20:48:50.828Z,97308.36
2018-09-03T20:51:19.763Z,97309.50
2018-09-03T20:53:48.859Z,97305.65
2018-09-03T20:56:17.451Z,97302.94
2018-09-03T20:58:46.084Z,97305.02
2018-09-03T21:01:14.648Z,97309.91
2018-09-03T21:03:43.208Z,97305.20
2018-09-03T21:06:12.068Z,97303.09
2018-09-03T21:08:40.617Z,97304.38
2018-09-03T21:11:09.183Z,97308.23
2018-09-03T21:13:37.968Z,97307.90
2018-09-03T21:16:06.711Z,97305.88
2018-09-03T21:18:35.304Z,97307.05
2018-09-03T21:21:03.959Z,97305.15
2018-09-03T21:23:32.775Z,97304.54
2018-09-03T21:26:01.404Z,97306.95
2018-09-03T21:28:30.208Z,97301.78
2018-09-03T21:30:58.778Z,97297.78
2018-09-03T21:33:27.511Z,97295.15
2018-09-03T21:35:56.107Z,97300.49
2018-09-03T21:38:24.883Z,97301.65
2018-09-03T21:40:53.454Z,97305.00
2018-09-03T21:43:22.472Z,97303.66
2018-09-03T21:45:51.065Z,97303.48
2018-09-03T21:48:19.853Z,97307.95
2018-09-03T21:50:48.543Z,97308.61
2018-09-03T21:53:17.095Z,97306.38
2018-09-03T21:55:45.696Z,97300.01
2018-09-03T21:58:14.379Z,97301.50
2018-09-03T22:00:44.512Z,97291.81
2018-09-03T22:03:13.080Z,97295.37
2018-09-03T22:05:41.863Z,97298.52
2018-09-03T22:08:10.424Z,97299.17
2018-09-03T22:10:38.980Z,97297.18
2018-09-03T22:13:07.774Z,97291.64
2018-09-03T22:15:36.615Z,97291.95
2018-09-03T22:18:05.179Z,97293.44
2018-09-03T22:20:33.824Z,97290.50
2018-09-03T22:23:02.375Z,97293.44
2018-09-03T22:25:30.967Z,97292.61
2018-09-03T22:27:59.651Z,97293.56
2018-09-03T22:30:29.829Z,97289.29
2018-09-03T22:32:58.427Z,97286.22
2018-09-03T22:35:27.203Z,97287.13
2018-09-03T22:37:55.791Z,97287.70
2018-09-03T22:40:24.378Z,97283.94
2018-09-03T22:42:52.971Z,97281.69
2018-09-03T22:45:21.566Z,97287.01
2018-09-03T22:47:50.132Z,97282.28
2018-09-03T22:50:18.821Z,97284.10
2018-09-03T22:52:47.387Z,97283.31
2018-09-03T22:55:15.975Z,97287.88
2018-09-03T22:57:44.592Z,97286.27
2018-09-03T23:00:13.188Z,97288.08
2018-09-03T23:02:43.719Z,97293.31
2018-09-03T23:05:12.966Z,97296.90
2018-09-03T23:07:41.545Z,97296.16
2018-09-03T23:10:10.583Z,97299.73
2018-09-03T23:12:39.147Z,97295.07
2018-09-03T23:15:08.632Z,97294.81
2018-09-03T23:17:37.371Z,97298.45
2018-09-03T23:20:05.955Z,97289.86
2018-09-03T23:22:34.651Z,97286.28
2018-09-03T23:25:03.255Z,97286.73
2018-09-03T23:27:31.829Z,97285.27
2018-09-03T23:30:00.395Z,97289.22
2018-09-03T23:32:29.392Z,97290.05
2018-09-03T23:34:57.951Z,97287.48
2018-09-03T23:37:26.554Z,97284.55
2018-09-03T23:39:55.476Z,97276.49
2018-09-03T23:42:24.042Z,97272.66
2018-09-03T23:44:52.643Z,97270.34
2018-09-03T23:47:21.263Z,97272.17
2018-09-03T23:49:49.823Z,97273.45
2018-09-03T23:52:18.376Z,97268.42
2018-09-03T23:54:47.003Z,97273.20
2018-09-03T23:57:15.571Z,97266.42
2018-09-03T23:59:44.157Z,97266.99
